Time;durP1;ratioP1;P1;durP2;ratioP2;P2;SDS_P1;SDS_P2;PMS_P1;PMS_P2;Temp;Humidity;BMP_temperature;BMP_pressure;BME280_temperature;BME280_humidity;BME280_pressure;Samples;Min_cycle;Max_cycle;Signal;HPM_P1;HPM_P2
2021/10/28 00:14:05;;;;;;;9.38;4.25;;;24.00;84.20;;;;;;5073120;28;20466;-62
2021/10/28 00:16:34;;;;;;;11.80;4.72;;;23.90;84.20;;;;;;5073388;28;20388;-68
2021/10/28 00:19:03;;;;;;;10.20;3.70;;;23.90;85.20;;;;;;5073988;28;20471;-66
2021/10/28 00:21:33;;;;;;;12.20;4.25;;;24.00;80.60;;;;;;5074121;28;20024;-68
2021/10/28 00:24:04;;;;;;;9.13;4.32;;;23.90;84.50;;;;;;5073594;28;20025;-68
2021/10/28 00:26:37;;;;;;;7.72;3.90;;;24.00;84.70;;;;;;5073562;28;20027;-67
2021/10/28 00:29:07;;;;;;;7.38;3.85;;;24.10;83.70;;;;;;5073595;28;20099;-67
2021/10/28 00:31:38;;;;;;;8.05;3.65;;;24.00;83.90;;;;;;5073436;28;20533;-67
2021/10/28 00:34:07;;;;;;;8.30;3.90;;;24.00;82.70;;;;;;5073192;28;20024;-67
2021/10/28 00:36:36;;;;;;;11.18;4.13;;;24.10;83.80;;;;;;5073220;28;20069;-65
2021/10/28 00:39:06;;;;;;;6.45;3.33;;;24.10;84.20;;;;;;5073143;28;20028;-69
2021/10/28 00:41:33;;;;;;;11.10;4.03;;;24.10;83.30;;;;;;5073121;28;20021;-68
2021/10/28 00:44:02;;;;;;;11.55;3.83;;;24.20;84.00;;;;;;5071389;28;20039;-67
2021/10/28 00:46:33;;;;;;;6.88;2.97;;;24.30;81.20;;;;;;5072880;28;20100;-66
2021/10/28 00:49:03;;;;;;;10.63;3.67;;;24.30;80.90;;;;;;5071508;28;20025;-69
2021/10/28 00:51:32;;;;;;;8.23;3.75;;;24.30;84.00;;;;;;5073471;28;20357;-67
2021/10/28 00:54:04;;;;;;;8.10;3.63;;;24.30;83.60;;;;;;5072601;28;20052;-69
2021/10/28 00:56:32;;;;;;;11.38;3.30;;;24.50;81.00;;;;;;5073367;28;20475;-69
2021/10/28 00:59:01;;;;;;;7.85;3.25;;;24.50;80.10;;;;;;5073309;28;20029;-69
2021/10/28 01:01:29;;;;;;;7.07;3.55;;;24.50;81.50;;;;;;5072770;28;20028;-66
2021/10/28 01:03:57;;;;;;;8.10;3.55;;;24.50;81.40;;;;;;5072627;28;20056;-69
2021/10/28 01:06:25;;;;;;;17.35;3.55;;;24.50;82.70;;;;;;5073080;28;20036;-68
2021/10/28 01:08:53;;;;;;;9.93;3.28;;;24.40;81.90;;;;;;5073224;28;20490;-65
2021/10/28 01:11:25;;;;;;;7.60;3.33;;;24.70;79.40;;;;;;5073699;28;20016;-68
2021/10/28 01:13:52;;;;;;;7.70;3.28;;;24.70;78.10;;;;;;5072899;28;20093;-66
2021/10/28 01:16:21;;;;;;;6.45;3.00;;;24.90;80.80;;;;;;5072667;28;20025;-71
2021/10/28 01:18:49;;;;;;;5.25;2.35;;;24.90;80.40;;;;;;5073094;28;20468;-70
2021/10/28 01:21:16;;;;;;;6.97;2.90;;;25.00;79.10;;;;;;5071792;28;20028;-69
2021/10/28 01:23:46;;;;;;;5.75;3.53;;;24.90;80.50;;;;;;5072448;28;20116;-68
2021/10/28 01:26:15;;;;;;;10.02;3.05;;;24.80;80.60;;;;;;5072244;28;20033;-67
2021/10/28 01:28:55;;;;;;;6.95;2.88;;;25.00;76.40;;;;;;5072083;28;20043;-70
2021/10/28 01:31:24;;;;;;;8.07;3.10;;;25.10;78.70;;;;;;5071806;28;20029;-68
2021/10/28 01:33:53;;;;;;;4.43;2.75;;;25.00;81.30;;;;;;5072353;28;20085;-67
2021/10/28 01:36:22;;;;;;;9.30;3.42;;;25.20;80.50;;;;;;5070688;28;20028;-68
2021/10/28 01:38:50;;;;;;;11.18;2.97;;;25.30;77.40;;;;;;5072481;28;20027;-70
2021/10/28 01:41:18;;;;;;;8.95;3.15;;;25.20;79.00;;;;;;5072050;28;20503;-67
2021/10/28 01:43:46;;;;;;;14.48;7.90;;;25.20;71.40;;;;;;5070847;28;20097;-69
2021/10/28 01:46:14;;;;;;;42.10;19.75;;;25.40;70.90;;;;;;5067843;28;20075;-63
2021/10/28 01:48:42;;;;;;;58.58;30.90;;;25.50;70.90;;;;;;5071043;28;20491;-66
2021/10/28 01:51:12;;;;;;;241.70;125.07;;;25.50;77.90;;;;;;5072021;28;20020;-68
2021/10/28 01:53:43;;;;;;;381.48;204.07;;;25.40;73.00;;;;;;5072043;28;20502;-69
2021/10/28 01:56:10;;;;;;;391.08;212.60;;;25.60;77.30;;;;;;5071901;28;20017;-65
2021/10/28 01:58:38;;;;;;;416.65;232.05;;;25.50;71.50;;;;;;5072093;28;20020;-67
2021/10/28 02:01:07;;;;;;;377.90;209.60;;;25.60;72.90;;;;;;5071538;28;20085;-68
2021/10/28 02:03:35;;;;;;;351.10;190.23;;;25.50;76.30;;;;;;5070095;28;20054;-69
2021/10/28 02:06:03;;;;;;;387.55;212.18;;;25.60;70.60;;;;;;5071852;28;20108;-63
2021/10/28 02:08:31;;;;;;;309.52;165.82;;;25.70;72.90;;;;;;5072048;28;20060;-66
2021/10/28 02:10:59;;;;;;;236.00;133.20;;;25.90;73.00;;;;;;5071179;28;20424;-66
2021/10/28 02:13:26;;;;;;;198.70;108.05;;;25.70;73.30;;;;;;5072200;28;20032;-67
2021/10/28 02:15:54;;;;;;;181.50;94.28;;;25.90;67.50;;;;;;5071993;28;20356;-69
2021/10/28 02:18:22;;;;;;;219.13;112.13;;;26.10;69.20;;;;;;5071716;28;20112;-69
2021/10/28 02:20:50;;;;;;;213.85;116.15;;;26.30;64.50;;;;;;5072310;28;20083;-67
2021/10/28 02:23:20;;;;;;;187.95;100.15;;;26.00;73.70;;;;;;5071454;28;20468;-69
2021/10/28 02:25:47;;;;;;;161.95;80.28;;;26.20;70.70;;;;;;5072150;28;20047;-66
2021/10/28 02:28:23;;;;;;;178.65;93.10;;;26.20;65.50;;;;;;5064692;28;20028;-63
2021/10/28 02:30:50;;;;;;;202.95;104.35;;;26.30;65.60;;;;;;5067404;28;20066;-63
2021/10/28 02:33:17;;;;;;;167.85;88.88;;;26.30;72.30;;;;;;5070414;28;20025;-63
2021/10/28 02:35:45;;;;;;;171.35;85.53;;;26.30;71.90;;;;;;5070529;28;20039;-58
2021/10/28 02:38:15;;;;;;;156.07;80.30;;;26.20;71.20;;;;;;5070638;28;20021;-64
2021/10/28 02:40:42;;;;;;;167.85;82.95;;;26.30;65.20;;;;;;5068463;28;20048;-62
2021/10/28 02:43:16;;;;;;;107.32;58.03;;;26.40;67.50;;;;;;5069967;28;20025;-62
2021/10/28 02:45:44;;;;;;;134.35;69.97;;;26.70;61.60;;;;;;5068809;28;20435;-66
2021/10/28 02:48:12;;;;;;;138.88;73.47;;;26.70;67.80;;;;;;5068772;28;20463;-64
2021/10/28 02:50:41;;;;;;;139.00;72.22;;;26.70;68.30;;;;;;5065832;28;20024;-65
2021/10/28 02:53:08;;;;;;;157.85;80.65;;;26.60;68.00;;;;;;5068916;28;20101;-60
2021/10/28 02:55:36;;;;;;;171.30;88.93;;;26.60;67.60;;;;;;5070131;28;20048;-64
2021/10/28 02:58:03;;;;;;;166.65;89.35;;;26.60;68.60;;;;;;5069905;28;20036;-64
2021/10/28 03:00:31;;;;;;;156.50;74.47;;;26.50;69.00;;;;;;5065663;28;20343;-63
2021/10/28 03:02:59;;;;;;;161.45;81.93;;;26.60;68.00;;;;;;5069912;28;20032;-68
2021/10/28 03:05:27;;;;;;;161.23;81.25;;;26.80;66.50;;;;;;5070255;28;20044;-63
2021/10/28 03:07:54;;;;;;;186.20;90.43;;;26.70;68.90;;;;;;5066168;28;20032;-65
2021/10/28 03:10:22;;;;;;;125.18;64.30;;;26.50;68.90;;;;;;5065220;28;20036;-63
2021/10/28 03:12:52;;;;;;;137.90;63.30;;;26.90;64.20;;;;;;5069573;28;20073;-61
2021/10/28 03:15:20;;;;;;;111.15;55.15;;;27.00;65.50;;;;;;5069492;28;20078;-59
2021/10/28 03:25:54;;;;;;;142.63;74.72;;;26.90;67.10;;;;;;5069599;28;20043;-62
2021/10/28 03:28:22;;;;;;;103.68;55.67;;;26.80;66.80;;;;;;5073389;28;20031;-58
2021/10/28 03:30:50;;;;;;;112.55;57.47;;;26.70;65.30;;;;;;5067699;28;20436;-64
2021/10/28 03:33:22;;;;;;;132.43;67.68;;;26.90;67.40;;;;;;5074137;28;20032;-60
2021/10/28 03:35:51;;;;;;;120.68;61.50;;;26.90;67.90;;;;;;5073244;28;20600;-64
2021/10/28 03:54:10;;;;;;;105.70;55.75;;;27.00;64.30;;;;;;5073871;28;20132;-66
2021/10/28 04:21:23;;;;;;;83.93;44.72;;;26.70;66.30;;;;;;5073818;28;20017;-64
2021/10/28 04:29:07;;;;;;;66.57;35.17;;;26.70;67.10;;;;;;5073186;28;20458;-67
2021/10/28 04:31:39;;;;;;;66.38;37.78;;;26.80;65.90;;;;;;5067180;28;20032;-54
2021/10/28 04:34:12;;;;;;;59.30;30.67;;;26.80;63.20;;;;;;5070311;28;20036;-60
2021/10/28 04:36:40;;;;;;;71.95;38.30;;;26.80;61.30;;;;;;5071986;28;20023;-59
2021/10/28 04:39:11;;;;;;;80.95;42.40;;;26.80;66.50;;;;;;5071522;28;20029;-59
2021/10/28 04:41:39;;;;;;;75.55;41.78;;;26.50;67.70;;;;;;5069548;28;20017;-59
2021/10/28 04:44:12;;;;;;;59.80;35.08;;;26.40;67.20;;;;;;5070451;28;20028;-57
2021/10/28 04:46:42;;;;;;;64.05;31.67;;;26.30;64.90;;;;;;5071765;28;20036;-62
2021/10/28 04:49:10;;;;;;;62.75;33.30;;;26.50;66.70;;;;;;5071662;28;20032;-60
2021/10/28 04:51:37;;;;;;;39.55;22.73;;;26.40;66.30;;;;;;5067981;28;20482;-64
2021/10/28 04:54:05;;;;;;;45.47;25.27;;;26.50;62.80;;;;;;5070465;28;20275;-62
2021/10/28 04:56:32;;;;;;;35.47;19.20;;;26.50;62.50;;;;;;5071748;28;20051;-61
2021/10/28 04:58:59;;;;;;;37.00;19.33;;;26.50;61.60;;;;;;5071283;28;20452;-63
2021/10/28 05:01:27;;;;;;;41.75;21.10;;;26.50;60.90;;;;;;5067902;28;20040;-59
2021/10/28 05:03:57;;;;;;;32.28;18.92;;;26.50;61.10;;;;;;5071069;28;20037;-62
2021/10/28 05:06:25;;;;;;;41.83;22.42;;;26.50;61.40;;;;;;5070717;28;20103;-62
2021/10/28 05:08:52;;;;;;;51.17;27.63;;;26.40;64.10;;;;;;5071624;28;20475;-61
2021/10/28 05:11:20;;;;;;;37.25;19.25;;;26.20;65.60;;;;;;5067304;28;20056;-63
2021/10/28 05:13:49;;;;;;;40.83;21.60;;;26.30;62.10;;;;;;5070686;28;20028;-63
2021/10/28 05:16:17;;;;;;;43.92;25.50;;;26.20;63.20;;;;;;5070839;28;20047;-64
2021/10/28 05:18:45;;;;;;;36.53;19.67;;;26.30;65.30;;;;;;5071460;28;20443;-58
2021/10/28 05:21:15;;;;;;;39.38;24.30;;;26.30;63.10;;;;;;5066419;28;20517;-65
2021/10/28 05:23:45;;;;;;;37.63;21.92;;;26.20;63.00;;;;;;5070881;28;20479;-65
2021/10/28 05:26:13;;;;;;;36.92;18.80;;;26.20;63.40;;;;;;5070728;28;20048;-63
2021/10/28 05:28:40;;;;;;;31.27;17.00;;;26.10;62.70;;;;;;5071404;28;20491;-64
2021/10/28 05:31:08;;;;;;;42.45;20.55;;;26.20;62.90;;;;;;5067588;28;20025;-66
2021/10/28 05:33:35;;;;;;;22.70;9.48;;;26.10;65.80;;;;;;5059302;28;20025;-62
2021/10/28 05:36:03;;;;;;;11.70;2.88;;;26.50;63.50;;;;;;5050974;28;20029;-64
2021/10/28 05:38:31;;;;;;;33.35;13.77;;;27.20;52.60;;;;;;5051859;28;20154;-66
2021/10/28 05:40:58;;;;;;;18.80;7.13;;;26.80;61.10;;;;;;5052452;28;20021;-64
2021/10/28 05:43:25;;;;;;;17.60;9.68;;;26.30;61.40;;;;;;5052552;28;20349;-64
2021/10/28 05:45:53;;;;;;;35.28;18.52;;;26.30;57.20;;;;;;5052424;28;20025;-66
2021/10/28 05:48:20;;;;;;;36.03;18.80;;;26.20;63.90;;;;;;5051568;28;20017;-64
2021/10/28 05:50:48;;;;;;;39.20;20.10;;;26.60;63.00;;;;;;5052368;28;20059;-63
2021/10/28 05:53:17;;;;;;;8.50;2.75;;;26.50;62.80;;;;;;5050704;28;20071;-64
2021/10/28 05:55:44;;;;;;;6.38;2.60;;;27.40;53.70;;;;;;5053001;28;20086;-66
2021/10/28 05:58:12;;;;;;;12.02;5.20;;;27.90;49.50;;;;;;5051193;28;20028;-61
2021/10/28 06:00:39;;;;;;;22.20;12.20;;;27.90;51.10;;;;;;5052554;28;20024;-63
2021/10/28 06:03:07;;;;;;;30.98;16.50;;;27.10;55.50;;;;;;5051936;28;20447;-63
2021/10/28 06:05:34;;;;;;;17.35;9.93;;;26.10;62.20;;;;;;5051659;28;20107;-61
2021/10/28 06:08:02;;;;;;;10.77;3.60;;;26.20;54.50;;;;;;5052076;28;20040;-64
2021/10/28 06:10:29;;;;;;;26.13;13.18;;;27.30;50.90;;;;;;5051752;28;20036;-62
2021/10/28 06:13:01;;;;;;;30.27;15.10;;;26.80;53.10;;;;;;5051871;28;20336;-63
2021/10/28 06:15:30;;;;;;;13.70;5.70;;;26.40;58.60;;;;;;5050826;28;20454;-61
2021/10/28 06:20:44;;;;;;;12.25;7.65;;;26.70;53.10;;;;;;5051570;28;20040;-61
2021/10/28 06:23:13;;;;;;;20.15;10.85;;;26.70;57.70;;;;;;5051439;28;20032;-64
2021/10/28 06:25:40;;;;;;;12.75;6.10;;;26.50;59.30;;;;;;5051703;28;20052;-66
2021/10/28 06:28:07;;;;;;;20.17;11.73;;;27.00;54.40;;;;;;5051060;28;20017;-66
2021/10/28 06:30:35;;;;;;;11.90;3.00;;;26.50;61.10;;;;;;5049762;28;20078;-61
2021/10/28 06:33:08;;;;;;;10.48;3.20;;;27.10;54.10;;;;;;5049746;28;20021;-63
2021/10/28 06:35:42;;;;;;;22.67;16.60;;;27.40;53.70;;;;;;5051874;28;20136;-55
2021/10/28 06:38:10;;;;;;;20.15;11.55;;;27.00;58.30;;;;;;5051797;28;20029;-61
2021/10/28 06:40:38;;;;;;;23.48;13.23;;;26.80;58.50;;;;;;5051269;28;20021;-59
2021/10/28 06:43:06;;;;;;;16.15;11.18;;;26.60;59.30;;;;;;5050997;28;20409;-56
2021/10/28 06:45:35;;;;;;;14.38;7.07;;;26.50;59.60;;;;;;5051060;28;20390;-58
2021/10/28 06:48:05;;;;;;;16.73;8.40;;;26.40;59.00;;;;;;5051348;28;20029;-58
2021/10/28 06:50:43;;;;;;;10.93;6.93;;;26.40;60.40;;;;;;5053594;28;20089;-58
2021/10/28 06:53:20;;;;;;;11.82;6.35;;;26.30;60.00;;;;;;5052902;28;20041;-54
2021/10/28 06:55:57;;;;;;;12.05;6.82;;;26.30;59.60;;;;;;5055030;28;20052;-56
2021/10/28 07:03:55;;;;;;;9.40;4.38;;;26.50;57.80;;;;;;5054980;28;20498;-61
2021/10/28 07:06:24;;;;;;;9.02;5.22;;;26.50;57.80;;;;;;5054909;28;20043;-64
2021/10/28 07:08:57;;;;;;;14.80;4.88;;;26.50;60.20;;;;;;5055048;28;20048;-64
2021/10/28 07:11:29;;;;;;;10.38;4.30;;;26.50;59.10;;;;;;5054574;28;20033;-63
2021/10/28 07:13:58;;;;;;;11.73;3.13;;;26.50;58.60;;;;;;5054445;28;20108;-64
2021/10/28 07:16:40;;;;;;;9.00;3.28;;;26.50;58.30;;;;;;5069931;28;20088;-65
2021/10/28 07:19:18;;;;;;;5.38;2.97;;;26.50;56.10;;;;;;5054918;28;20048;-65
2021/10/28 07:27:49;;;;;;;8.38;3.10;;;26.40;56.70;;;;;;5033930;28;20045;-67
2021/10/28 07:32:48;;;;;;;8.63;2.88;;;26.40;55.50;;;;;;5055026;28;20041;-62
2021/10/28 07:35:31;;;;;;;9.73;3.58;;;26.30;54.50;;;;;;5054812;28;20151;-65
2021/10/28 08:14:17;;;;;;;8.82;2.40;;;25.90;53.10;;;;;;5030857;28;20040;-59
2021/10/28 08:19:39;;;;;;;9.60;2.08;;;25.80;52.10;;;;;;5073652;28;20082;-64
2021/10/28 08:22:20;;;;;;;7.22;2.63;;;25.90;52.50;;;;;;5073106;28;20082;-65
2021/10/28 08:30:14;;;;;;;14.48;7.15;;;25.80;54.20;;;;;;5074105;28;20113;-60
2021/10/28 08:32:42;;;;;;;9.95;4.35;;;25.70;56.20;;;;;;5073755;28;20020;-65
2021/10/28 08:35:09;;;;;;;16.10;3.05;;;25.70;54.10;;;;;;5073773;28;20031;-66
2021/10/28 08:37:45;;;;;;;9.98;3.03;;;25.60;53.20;;;;;;5073774;28;20025;-64
2021/10/28 08:40:15;;;;;;;13.55;4.93;;;25.70;51.60;;;;;;5073393;28;20105;-63
2021/10/28 08:42:44;;;;;;;7.97;3.50;;;25.60;56.40;;;;;;5073084;28;20036;-65
2021/10/28 08:45:15;;;;;;;15.27;5.88;;;25.60;54.70;;;;;;5071993;28;20032;-64
2021/10/28 08:47:49;;;;;;;6.97;3.00;;;25.60;56.70;;;;;;5073266;28;20036;-62
2021/10/28 08:50:26;;;;;;;13.73;4.70;;;25.60;53.60;;;;;;5073001;28;20099;-61
2021/10/28 08:53:21;;;;;;;9.77;4.70;;;25.60;57.80;;;;;;5072825;28;20049;-58
2021/10/28 08:55:49;;;;;;;10.90;3.75;;;25.50;56.80;;;;;;5073396;28;20032;-60
2021/10/28 09:26:52;;;;;;;7.55;4.97;;;25.10;61.40;;;;;;5072763;28;20461;-64
2021/10/28 09:32:04;;;;;;;8.13;5.20;;;25.00;63.20;;;;;;5067230;28;20027;-61
2021/10/28 09:34:51;;;;;;;9.48;5.38;;;25.00;63.10;;;;;;5067962;28;20028;-62
2021/10/28 09:51:58;;;;;;;9.93;4.68;;;24.70;66.20;;;;;;5065271;28;20103;-62
2021/10/28 09:55:00;;;;;;;8.45;4.72;;;24.60;66.30;;;;;;5063674;28;20048;-63
2021/10/28 09:57:49;;;;;;;10.57;5.93;;;24.60;67.30;;;;;;5066418;28;20429;-69
2021/10/28 10:00:18;;;;;;;10.73;4.97;;;24.50;67.90;;;;;;5070916;28;20127;-66
2021/10/28 10:02:55;;;;;;;10.60;5.70;;;24.50;67.90;;;;;;5066938;28;20103;-64
2021/10/28 10:05:25;;;;;;;9.82;5.00;;;24.50;68.40;;;;;;5070406;28;20047;-63
2021/10/28 10:07:54;;;;;;;7.22;4.10;;;24.40;68.50;;;;;;5069777;28;20052;-64
2021/10/28 10:10:29;;;;;;;9.70;4.55;;;24.40;68.90;;;;;;5070313;28;20387;-62
2021/10/28 10:12:58;;;;;;;9.18;4.82;;;24.40;69.00;;;;;;5064227;28;21633;-63
2021/10/28 10:15:26;;;;;;;12.20;5.03;;;24.40;69.00;;;;;;5070807;28;20021;-61
2021/10/28 10:18:01;;;;;;;9.68;4.97;;;24.40;69.70;;;;;;5069956;28;20395;-61
2021/10/28 10:20:35;;;;;;;8.40;4.60;;;24.40;69.20;;;;;;5069068;28;20027;-63
2021/10/28 11:21:48;;;;;;;7.93;3.75;;;23.80;73.00;;;;;;5072952;28;20039;-62
2021/10/28 12:15:52;;;;;;;6.18;3.38;;;23.50;74.20;;;;;;5074199;28;20122;-67
2021/10/28 12:21:28;;;;;;;7.43;3.58;;;23.40;74.50;;;;;;5074279;28;20387;-67
2021/10/28 12:44:23;;;;;;;7.75;3.58;;;23.20;75.50;;;;;;5065594;28;20048;-61
2021/10/28 13:34:51;;;;;;;5.45;3.03;;;22.90;77.80;;;;;;5069281;28;20031;-65
2021/10/28 14:16:14;;;;;;;6.65;2.63;;;22.60;78.10;;;;;;5069335;28;20092;-59
2021/10/28 14:39:18;;;;;;;11.55;3.17;;;22.50;78.70;;;;;;5071277;28;20052;-63
2021/10/28 15:28:15;;;;;;;5.50;2.85;;;22.40;79.70;;;;;;5072941;28;20483;-63
2021/10/28 15:36:38;;;;;;;7.28;3.00;;;22.30;79.20;;;;;;5070937;28;20481;-64
2021/10/28 15:39:21;;;;;;;7.97;2.90;;;22.30;79.30;;;;;;5073011;28;20051;-62
2021/10/28 15:53:16;;;;;;;4.25;2.47;;;22.30;79.30;;;;;;5048255;28;20048;-63
2021/10/28 16:23:24;;;;;;;5.28;2.63;;;22.20;79.50;;;;;;5064584;28;20055;-60
2021/10/28 16:25:51;;;;;;;4.15;2.28;;;22.10;79.50;;;;;;5072831;28;20040;-60
2021/10/28 16:28:19;;;;;;;5.40;3.17;;;22.10;79.60;;;;;;5071864;28;20043;-67
2021/10/28 16:30:48;;;;;;;3.53;2.45;;;22.10;79.70;;;;;;5072891;28;20024;-61
2021/10/28 16:33:15;;;;;;;5.32;2.13;;;22.20;79.70;;;;;;5067672;28;20031;-60
2021/10/28 16:35:44;;;;;;;3.60;2.35;;;22.10;79.70;;;;;;5069142;28;20082;-59
2021/10/28 16:38:11;;;;;;;4.22;2.80;;;22.10;79.70;;;;;;5068276;28;20037;-60
2021/10/28 16:40:40;;;;;;;2.58;2.20;;;22.10;79.60;;;;;;5071949;28;20092;-59
2021/10/28 16:43:08;;;;;;;4.40;2.30;;;22.10;79.70;;;;;;5072484;28;20036;-60
2021/10/28 16:45:37;;;;;;;3.38;2.20;;;22.10;79.60;;;;;;5071229;28;20029;-60
2021/10/28 16:48:07;;;;;;;4.70;2.90;;;22.10;79.50;;;;;;5071556;28;20081;-60
2021/10/28 16:50:35;;;;;;;3.53;2.38;;;22.10;79.60;;;;;;5071423;28;20444;-59
2021/10/28 16:53:04;;;;;;;3.40;2.50;;;22.10;79.80;;;;;;5071004;28;20040;-59
2021/10/28 16:55:32;;;;;;;3.97;2.40;;;22.00;79.60;;;;;;5069639;28;20073;-61
2021/10/28 16:57:59;;;;;;;4.35;2.47;;;22.00;79.60;;;;;;5071312;28;20025;-60
2021/10/28 17:00:27;;;;;;;2.92;2.10;;;22.00;79.60;;;;;;5072028;28;20020;-59
2021/10/28 17:02:54;;;;;;;3.95;2.30;;;22.00;79.60;;;;;;5071804;28;20040;-63
2021/10/28 17:05:22;;;;;;;4.55;2.53;;;22.00;79.50;;;;;;5068354;28;20048;-60
2021/10/28 17:07:50;;;;;;;3.03;2.40;;;22.00;79.60;;;;;;5067844;28;20103;-59
2021/10/28 17:10:17;;;;;;;5.28;2.28;;;22.00;79.60;;;;;;5071430;28;20024;-66
2021/10/28 17:12:44;;;;;;;3.42;2.28;;;22.00;79.60;;;;;;5071779;28;20024;-62
2021/10/28 17:15:12;;;;;;;3.78;2.15;;;22.00;79.50;;;;;;5065619;28;20060;-64
2021/10/28 17:17:39;;;;;;;3.03;2.33;;;22.00;79.60;;;;;;5071388;28;20021;-62
2021/10/28 17:20:08;;;;;;;3.50;2.03;;;22.00;79.60;;;;;;5071598;28;20032;-63
2021/10/28 17:22:37;;;;;;;4.95;2.58;;;22.00;79.50;;;;;;5071228;28;20032;-59
2021/10/28 17:25:07;;;;;;;4.90;2.80;;;22.00;79.50;;;;;;5067714;28;20093;-65
2021/10/28 17:27:35;;;;;;;2.67;2.20;;;22.00;79.50;;;;;;5071458;28;20025;-61
2021/10/28 17:30:04;;;;;;;3.88;1.92;;;21.90;79.40;;;;;;5071518;28;20078;-60
2021/10/28 17:32:34;;;;;;;5.43;2.08;;;21.90;79.40;;;;;;5070987;28;20111;-59
2021/10/28 17:35:01;;;;;;;5.47;2.45;;;21.90;79.40;;;;;;5065992;28;20017;-61
2021/10/28 17:37:28;;;;;;;2.80;1.92;;;21.90;79.40;;;;;;5070814;28;20021;-59
2021/10/28 17:39:56;;;;;;;3.63;2.38;;;21.90;79.50;;;;;;5070241;28;20024;-64
2021/10/28 17:42:23;;;;;;;4.88;2.45;;;21.90;79.40;;;;;;5067681;28;20100;-62
2021/10/28 17:44:53;;;;;;;3.47;1.95;;;21.90;79.40;;;;;;5067957;28;20032;-63
2021/10/28 17:47:21;;;;;;;4.13;2.28;;;21.90;79.40;;;;;;5071247;28;20048;-65
2021/10/28 17:49:49;;;;;;;5.35;2.25;;;21.90;79.30;;;;;;5071063;28;20025;-62
2021/10/28 17:52:18;;;;;;;5.22;2.25;;;21.90;79.30;;;;;;5070618;28;20029;-66
2021/10/28 17:54:46;;;;;;;6.45;2.40;;;21.90;79.30;;;;;;5067289;28;20068;-62
2021/10/28 17:57:14;;;;;;;3.97;2.45;;;21.90;79.40;;;;;;5070600;28;20332;-59
2021/10/28 17:59:42;;;;;;;3.45;2.42;;;21.90;79.40;;;;;;5071467;28;20089;-61
2021/10/28 18:02:10;;;;;;;3.38;2.08;;;21.90;79.40;;;;;;5070970;28;20025;-60
2021/10/28 18:04:38;;;;;;;2.97;2.17;;;21.90;79.40;;;;;;5066160;28;20049;-66
2021/10/28 18:07:06;;;;;;;5.85;2.58;;;21.90;79.40;;;;;;5070655;28;20029;-63
2021/10/28 18:09:35;;;;;;;3.10;2.10;;;21.90;79.40;;;;;;5071080;28;20067;-62
2021/10/28 18:12:02;;;;;;;6.03;1.88;;;21.90;80.00;;;;;;5071350;28;20028;-62
2021/10/28 18:14:29;;;;;;;3.17;2.17;;;21.90;79.40;;;;;;5065498;28;20028;-61
2021/10/28 18:16:58;;;;;;;3.00;2.45;;;21.80;79.30;;;;;;5066189;28;20039;-64
2021/10/28 18:19:26;;;;;;;3.40;1.88;;;21.90;79.40;;;;;;5070961;28;20037;-60
2021/10/28 18:21:56;;;;;;;2.95;2.15;;;21.80;79.30;;;;;;5070981;28;20107;-61
2021/10/28 18:24:27;;;;;;;4.15;2.30;;;21.90;79.40;;;;;;5064131;28;20037;-61
2021/10/28 18:26:55;;;;;;;4.65;2.00;;;21.80;79.30;;;;;;5070255;28;20025;-62
2021/10/28 18:29:23;;;;;;;2.97;1.98;;;21.80;79.10;;;;;;5070453;28;20040;-60
2021/10/28 18:31:50;;;;;;;3.97;2.30;;;21.80;79.10;;;;;;5070914;28;20203;-62
2021/10/28 18:34:18;;;;;;;2.88;1.88;;;21.80;79.00;;;;;;5066179;28;20029;-61
2021/10/28 18:36:46;;;;;;;2.95;2.15;;;21.80;79.20;;;;;;5070088;28;20031;-60
2021/10/28 18:39:13;;;;;;;2.80;2.20;;;21.80;79.10;;;;;;5070444;28;20355;-61
2021/10/28 18:41:43;;;;;;;2.40;1.83;;;21.80;78.90;;;;;;5070837;28;20032;-62
2021/10/28 18:44:11;;;;;;;6.63;2.35;;;21.80;78.90;;;;;;5071071;28;20028;-66
2021/10/28 18:46:39;;;;;;;2.83;1.90;;;21.80;78.90;;;;;;5075160;28;20024;-65
2021/10/28 18:49:08;;;;;;;4.85;2.10;;;21.90;79.00;;;;;;5076430;28;20689;-66
2021/10/28 18:51:38;;;;;;;3.13;2.00;;;21.90;78.90;;;;;;5075040;28;20060;-67
2021/10/28 18:54:06;;;;;;;4.30;2.30;;;21.80;79.30;;;;;;5076214;28;20047;-66
2021/10/28 18:56:33;;;;;;;3.03;2.10;;;21.80;78.70;;;;;;5075988;28;20035;-67
2021/10/28 18:59:01;;;;;;;3.33;2.30;;;21.80;78.80;;;;;;5075720;28;20028;-67
2021/10/28 19:01:31;;;;;;;3.95;2.25;;;21.80;78.70;;;;;;5074561;28;20024;-64
2021/10/28 19:03:58;;;;;;;2.78;1.90;;;21.80;78.70;;;;;;5073964;28;20025;-67
2021/10/28 19:06:26;;;;;;;4.40;1.98;;;21.80;78.70;;;;;;5075804;28;20036;-66
2021/10/28 19:08:53;;;;;;;5.20;1.98;;;21.80;78.70;;;;;;5075429;28;20383;-67
2021/10/28 19:11:23;;;;;;;8.35;2.20;;;21.80;78.70;;;;;;5074575;28;20028;-65
2021/10/28 19:13:51;;;;;;;3.15;2.10;;;21.80;78.70;;;;;;5075948;28;20017;-66
2021/10/28 19:16:20;;;;;;;2.10;1.40;;;21.80;78.70;;;;;;5075391;28;20078;-67
2021/10/28 19:18:47;;;;;;;3.10;1.88;;;21.80;78.70;;;;;;5075469;28;20110;-66
2021/10/28 19:21:15;;;;;;;4.35;1.80;;;21.80;78.70;;;;;;5074822;28;20379;-65
2021/10/28 19:23:43;;;;;;;3.65;1.77;;;21.80;78.50;;;;;;5074893;28;20036;-64
2021/10/28 19:26:11;;;;;;;3.22;2.20;;;21.80;78.70;;;;;;5075225;28;20064;-66
2021/10/28 19:28:40;;;;;;;5.28;2.00;;;21.80;78.70;;;;;;5075341;28;20047;-67
2021/10/28 19:34:05;;;;;;;3.78;2.22;;;21.80;78.50;;;;;;5065797;28;20067;-65
2021/10/28 19:36:36;;;;;;;3.40;1.90;;;21.80;78.10;;;;;;5074936;28;20479;-67
2021/10/28 19:47:43;;;;;;;3.17;1.70;;;21.80;78.00;;;;;;5075234;28;20066;-64
2021/10/28 19:50:12;;;;;;;3.35;2.17;;;21.80;78.10;;;;;;5056746;28;20051;-65
2021/10/28 19:52:41;;;;;;;4.72;2.17;;;21.80;78.40;;;;;;5073910;28;20483;-66
2021/10/28 19:55:09;;;;;;;9.85;2.00;;;21.80;77.40;;;;;;5074062;28;20408;-65
2021/10/28 19:57:47;;;;;;;4.65;2.10;;;21.80;77.50;;;;;;5072030;28;20479;-67
2021/10/28 20:00:35;;;;;;;3.60;2.17;;;21.80;77.10;;;;;;5074518;28;20028;-66
2021/10/28 20:13:57;;;;;;;3.85;1.75;;;21.90;76.80;;;;;;5074390;28;20028;-66
2021/10/28 20:21:55;;;;;;;4.93;2.08;;;21.90;78.00;;;;;;5074015;28;20031;-64
2021/10/28 20:24:22;;;;;;;2.72;1.85;;;21.90;76.10;;;;;;5073837;28;20090;-65
2021/10/28 20:26:49;;;;;;;2.90;1.58;;;21.90;76.90;;;;;;5073947;28;20024;-63
2021/10/28 20:29:17;;;;;;;3.25;1.92;;;21.90;76.60;;;;;;5071985;28;20398;-64
2021/10/28 20:31:44;;;;;;;4.18;1.55;;;21.90;77.70;;;;;;5073281;28;20396;-66
2021/10/28 20:37:16;;;;;;;2.83;1.88;;;22.00;77.50;;;;;;5074147;28;20017;-67
2021/10/28 20:39:45;;;;;;;3.40;1.83;;;22.00;77.20;;;;;;5073121;28;20119;-68
2021/10/28 20:42:16;;;;;;;6.00;2.33;;;22.00;74.80;;;;;;5073192;28;20071;-66
2021/10/28 20:44:47;;;;;;;4.15;1.80;;;22.00;77.30;;;;;;5071530;28;20527;-63
2021/10/28 20:47:15;;;;;;;3.00;1.70;;;22.00;75.40;;;;;;5072829;28;20036;-61
2021/10/28 20:49:43;;;;;;;3.35;1.90;;;22.10;77.70;;;;;;5072945;28;20151;-66
2021/10/28 20:52:12;;;;;;;2.67;1.90;;;22.10;77.20;;;;;;5072613;28;20052;-63
2021/10/28 20:54:40;;;;;;;3.40;2.03;;;22.10;77.60;;;;;;5073329;28;20041;-67
2021/10/28 20:57:07;;;;;;;2.53;1.65;;;22.10;77.40;;;;;;5072234;28;20113;-64
2021/10/28 20:59:35;;;;;;;5.85;1.90;;;22.20;77.30;;;;;;5072642;28;20039;-62
2021/10/28 21:02:03;;;;;;;4.18;1.90;;;22.10;74.70;;;;;;5072643;28;20021;-65
2021/10/28 21:04:30;;;;;;;3.03;1.70;;;22.20;77.10;;;;;;5072532;28;20040;-66
2021/10/28 21:06:58;;;;;;;1.83;1.67;;;22.20;75.50;;;;;;5072947;28;20017;-67
2021/10/28 21:09:26;;;;;;;3.10;1.55;;;22.20;76.70;;;;;;5070981;28;20119;-67
2021/10/28 21:11:53;;;;;;;2.65;1.77;;;22.30;76.30;;;;;;5070641;28;20036;-64
2021/10/28 21:14:20;;;;;;;2.08;1.38;;;22.30;76.50;;;;;;5072303;28;20429;-64
2021/10/28 21:16:48;;;;;;;4.47;2.10;;;22.30;76.20;;;;;;5072403;28;20024;-65
2021/10/28 21:19:15;;;;;;;3.00;1.88;;;22.30;73.90;;;;;;5072458;28;20471;-67
2021/10/28 21:21:44;;;;;;;3.15;2.05;;;22.30;76.20;;;;;;5072482;28;20086;-67
2021/10/28 21:24:13;;;;;;;4.03;1.83;;;22.30;76.30;;;;;;5071773;28;20044;-67
2021/10/28 21:26:40;;;;;;;5.40;2.40;;;22.40;76.20;;;;;;5072061;28;20086;-67
2021/10/28 21:29:08;;;;;;;3.15;2.05;;;22.40;74.70;;;;;;5072146;28;20032;-68
2021/10/28 21:31:36;;;;;;;2.80;2.00;;;22.40;75.50;;;;;;5062177;28;20028;-65
2021/10/28 21:34:04;;;;;;;2.47;1.67;;;22.40;75.80;;;;;;5070215;28;20040;-64
2021/10/28 21:36:31;;;;;;;2.85;2.03;;;22.50;76.40;;;;;;5071330;28;20502;-69
2021/10/28 21:38:58;;;;;;;4.10;2.03;;;22.50;76.50;;;;;;5071129;28;20090;-58
2021/10/28 21:41:26;;;;;;;2.28;1.73;;;22.60;76.40;;;;;;5067286;28;20108;-67
2021/10/28 21:43:54;;;;;;;7.57;1.70;;;22.60;75.50;;;;;;5070897;28;20028;-65
2021/10/28 21:46:22;;;;;;;3.60;1.77;;;22.70;72.60;;;;;;5071487;28;20044;-64